KGLD/GLD METAR and TAF weather

Enter ICAO airport designator
Station Type Date Time Source
KGLD METAR 2020/01/18 12:53 UTC NOAA

KGLD 181253Z AUTO 32009KT 10SM CLR M06/M12 A3025 RMK AO2 SLP267 T10561117 $


Station Type Date Time Source
KGLD Decoded METAR 2020/01/18 12:53 UTC NOAA

GOODLAND RENNER FIELD, KS, United States (KGLD) 39-22N 101-42W 1114M
Jan 18, 2020 - 07:53 AM EST / 2020.01.18 1253 UTC
Wind: from the NW (320 degrees) at 10 MPH (9 KT):0
Visibility: 10 mile(s):0
Sky conditions: clear
Temperature: 21.9 F (-5.6 C)
Windchill: 10 F (-12 C):1
Dew Point: 10.9 F (-11.7 C)
Relative Humidity: 62%
Pressure (altimeter): 30.25 in. Hg (1024 hPa)
ob: KGLD 181253Z AUTO 32009KT 10SM CLR M06/M12 A3025 RMK AO2 SLP267 T10561117
cycle: 13

Station Type Date Time Source
KGLD TAF 2020/01/18 12:22 UTC NOAA

TAF KGLD 181120Z 1812/1912 32012G18KT P6SM FEW250 WS020/33050KT
FM181500 34011KT P6SM SCT250
FM182300 27007KT P6SM SCT250
FM190500 24008KT P6SM FEW250

Example: see airport list